createdAt,value
2019-03-08T00:00:50.451Z,95810.96
2019-03-08T00:03:19.346Z,95796.29
2019-03-08T00:05:45.140Z,95813.30
2019-03-08T00:08:10.946Z,95796.02
2019-03-08T00:10:36.863Z,95799.16
2019-03-08T00:13:03.034Z,95794.16
2019-03-08T00:15:29.137Z,95803.32
2019-03-08T00:17:55.309Z,95806.08
2019-03-08T00:20:23.916Z,95804.33
2019-03-08T00:22:49.994Z,95814.76
2019-03-08T00:25:18.830Z,95801.25
2019-03-08T00:27:44.630Z,95816.97
2019-03-08T00:30:13.628Z,95804.02
2019-03-08T00:32:39.711Z,95814.00
2019-03-08T00:35:07.960Z,95813.88
2019-03-08T00:37:33.780Z,95828.38
2019-03-08T00:40:08.467Z,95820.33
2019-03-08T00:42:34.399Z,95820.52
2019-03-08T00:45:00.373Z,95833.62
2019-03-08T00:47:26.212Z,95837.42
2019-03-08T00:49:52.505Z,95840.16
2019-03-08T00:52:18.324Z,95842.58
2019-03-08T00:54:44.102Z,95841.86
2019-03-08T00:57:10.208Z,95839.70
2019-03-08T00:59:36.002Z,95844.95
2019-03-08T01:02:04.968Z,95849.19
2019-03-08T01:04:30.757Z,95842.55
2019-03-08T01:06:57.722Z,95844.02
2019-03-08T01:09:23.506Z,95846.61
2019-03-08T01:11:52.630Z,95849.77
2019-03-08T01:14:18.708Z,95843.50
2019-03-08T01:16:49.071Z,95845.16
2019-03-08T01:19:15.145Z,95846.72
2019-03-08T01:21:41.019Z,95854.58
2019-03-08T01:24:07.419Z,95854.86
2019-03-08T01:26:33.220Z,95859.19
2019-03-08T01:28:59.335Z,95858.27
2019-03-08T01:31:25.123Z,95853.84
2019-03-08T01:33:54.387Z,95860.11
2019-03-08T01:36:20.443Z,95865.08
2019-03-08T01:38:49.422Z,95872.59
2019-03-08T01:41:15.411Z,95875.70
2019-03-08T01:43:44.346Z,95869.16
2019-03-08T01:46:10.430Z,95878.61
2019-03-08T01:48:39.215Z,95862.35
2019-03-08T01:51:05.040Z,95874.39
2019-03-08T01:53:33.904Z,95862.94
2019-03-08T01:55:59.792Z,95866.75
2019-03-08T01:58:26.125Z,95863.23
2019-03-08T02:00:52.221Z,95862.66
2019-03-08T02:03:18.031Z,95860.78
2019-03-08T02:05:46.924Z,95861.72
2019-03-08T02:08:12.758Z,95868.84
2019-03-08T02:10:41.345Z,95824.42
2019-03-08T02:13:07.502Z,95884.31
2019-03-08T02:15:36.229Z,95860.93
2019-03-08T02:18:02.038Z,95864.26
2019-03-08T02:20:30.727Z,95856.78
2019-03-08T02:22:56.825Z,95874.91
2019-03-08T02:25:42.501Z,95859.75
2019-03-08T02:28:08.715Z,95850.41
2019-03-08T02:30:34.526Z,95848.67
2019-03-08T02:33:00.326Z,95849.89
2019-03-08T02:35:26.126Z,95853.20
2019-03-08T02:37:52.245Z,95858.66
2019-03-08T02:40:25.148Z,95859.76
2019-03-08T02:42:51.246Z,95859.84
2019-03-08T02:45:17.502Z,95859.11
2019-03-08T02:47:43.569Z,95854.78
2019-03-08T02:50:09.654Z,95861.53
2019-03-08T02:52:35.470Z,95879.16
2019-03-08T02:55:01.594Z,95912.88
2019-03-08T02:57:27.378Z,95913.36
2019-03-08T02:59:53.164Z,95920.83
2019-03-08T03:02:19.111Z,95932.36
2019-03-08T03:04:44.934Z,95939.56
2019-03-08T03:07:11.017Z,95931.34
2019-03-08T03:09:37.111Z,95922.52
2019-03-08T03:12:03.302Z,95936.86
2019-03-08T03:14:29.418Z,95941.20
2019-03-08T03:16:55.498Z,95938.54
2019-03-08T03:19:21.359Z,95938.34
2019-03-08T03:21:47.292Z,95941.07
2019-03-08T03:24:13.383Z,95951.52
2019-03-08T03:26:39.465Z,95946.53
2019-03-08T03:29:05.258Z,95941.69
2019-03-08T03:31:31.376Z,95952.75
2019-03-08T03:33:59.927Z,95949.80
2019-03-08T03:36:26.023Z,95953.17
2019-03-08T03:38:55.070Z,95963.39
2019-03-08T03:41:21.125Z,95968.25
2019-03-08T03:43:49.802Z,95976.47
2019-03-08T03:46:15.905Z,95986.78
2019-03-08T03:48:41.999Z,95970.22
2019-03-08T03:51:08.082Z,95978.88
2019-03-08T03:53:33.944Z,95975.72
2019-03-08T03:56:02.896Z,95977.39
2019-03-08T03:58:28.723Z,95999.48
2019-03-08T04:00:57.349Z,95973.39
2019-03-08T04:03:23.145Z,95991.07
2019-03-08T04:05:51.991Z,95977.63
2019-03-08T04:08:17.788Z,95990.53
2019-03-08T04:10:46.613Z,95979.97
2019-03-08T04:13:12.508Z,95999.48
2019-03-08T04:15:41.397Z,95992.05
2019-03-08T04:18:07.236Z,95996.59
2019-03-08T04:20:35.845Z,95994.30
2019-03-08T04:23:01.639Z,96013.13
2019-03-08T04:25:27.479Z,96001.80
2019-03-08T04:27:53.300Z,96010.69
2019-03-08T04:30:19.925Z,96012.41
2019-03-08T04:32:46.131Z,96019.41
2019-03-08T04:35:11.949Z,96016.66
2019-03-08T04:37:40.650Z,96017.58
2019-03-08T04:40:10.758Z,96023.83
2019-03-08T04:42:36.738Z,96024.33
2019-03-08T04:45:04.320Z,96023.96
2019-03-08T04:47:30.554Z,96022.77
2019-03-08T04:49:56.398Z,96027.63
2019-03-08T04:52:25.183Z,96040.83
2019-03-08T04:54:50.992Z,96046.36
2019-03-08T04:57:19.830Z,96031.42
2019-03-08T04:59:45.628Z,96038.79
2019-03-08T05:02:11.706Z,96034.92
2019-03-08T05:04:37.713Z,96034.69
2019-03-08T05:07:03.488Z,96044.09
2019-03-08T05:09:32.054Z,96051.98
2019-03-08T05:11:57.853Z,96066.98
2019-03-08T05:14:26.852Z,96058.81
2019-03-08T05:16:52.952Z,96058.37
2019-03-08T05:19:21.716Z,96059.56
2019-03-08T05:21:47.708Z,96076.27
2019-03-08T05:24:16.542Z,96063.13
2019-03-08T05:26:42.337Z,96074.61
2019-03-08T05:29:11.225Z,96056.55
2019-03-08T05:31:37.288Z,96079.80
2019-03-08T05:34:04.644Z,96067.37
2019-03-08T05:36:30.715Z,96088.03
2019-03-08T05:38:57.011Z,96075.87
2019-03-08T05:41:23.101Z,96081.65
2019-03-08T05:43:48.916Z,96086.20
2019-03-08T05:46:17.485Z,96104.33
2019-03-08T05:48:43.570Z,96100.67
2019-03-08T05:51:12.441Z,96102.88
2019-03-08T05:53:38.492Z,96124.58
2019-03-08T05:56:07.633Z,96106.98
2019-03-08T05:58:33.422Z,96120.33
2019-03-08T06:01:02.645Z,96107.29
2019-03-08T06:03:28.694Z,96109.47
2019-03-08T06:05:57.302Z,96105.83
2019-03-08T06:08:23.123Z,96118.73
2019-03-08T06:10:50.186Z,96114.87
2019-03-08T06:13:16.370Z,96116.33
2019-03-08T06:15:42.487Z,96118.47
2019-03-08T06:18:08.591Z,96120.16
2019-03-08T06:20:36.816Z,96118.62
2019-03-08T06:23:04.523Z,96122.73
2019-03-08T06:25:30.602Z,96124.94
2019-03-08T06:27:56.423Z,96124.39
2019-03-08T06:30:22.217Z,96128.81
2019-03-08T06:32:51.626Z,96123.55
2019-03-08T06:35:17.439Z,96135.64
2019-03-08T06:37:46.418Z,96137.98
2019-03-08T06:40:12.868Z,96145.79
2019-03-08T06:42:41.926Z,96154.36
2019-03-08T06:45:16.754Z,96179.38
2019-03-08T06:47:42.976Z,96167.45
2019-03-08T06:50:10.719Z,96162.58
2019-03-08T06:52:36.549Z,96165.00
2019-03-08T06:55:04.452Z,96167.27
2019-03-08T06:57:30.238Z,96165.78
2019-03-08T06:59:57.990Z,96169.19
2019-03-08T07:02:24.188Z,96168.36
2019-03-08T07:04:50.259Z,96173.84
2019-03-08T07:07:16.333Z,96182.34
2019-03-08T07:09:42.427Z,96193.86
2019-03-08T07:12:08.258Z,96201.84
2019-03-08T07:14:34.075Z,96202.21
2019-03-08T07:16:59.900Z,96211.02
2019-03-08T07:19:28.532Z,96214.28
2019-03-08T07:21:56.540Z,96214.97
2019-03-08T07:24:30.124Z,96222.28
2019-03-08T07:27:04.162Z,96226.53
2019-03-08T07:29:35.015Z,96225.55
2019-03-08T07:32:05.522Z,96226.94
2019-03-08T07:34:33.264Z,96240.67
2019-03-08T07:37:16.633Z,96239.92
2019-03-08T07:39:47.520Z,96235.59
2019-03-08T07:42:27.584Z,96243.53
2019-03-08T07:45:12.411Z,96250.77
2019-03-08T07:47:43.126Z,96251.92
2019-03-08T07:50:16.267Z,96265.02
2019-03-08T07:52:44.254Z,96259.94
2019-03-08T07:55:24.305Z,96269.13
2019-03-08T07:57:55.317Z,96271.12
2019-03-08T08:03:12.439Z,96292.86
2019-03-08T08:05:40.156Z,96282.13
2019-03-08T08:08:10.724Z,96293.89
2019-03-08T08:10:41.236Z,96291.75
2019-03-08T08:13:21.048Z,96304.11
2019-03-08T08:15:49.064Z,96314.09
2019-03-08T08:18:29.314Z,96316.46
2019-03-08T08:20:57.039Z,96272.64
2019-03-08T08:23:33.855Z,96322.71
2019-03-08T08:26:07.162Z,96326.03
2019-03-08T08:28:34.871Z,96323.44
2019-03-08T08:31:20.633Z,96332.74
2019-03-08T08:34:07.200Z,96345.66
2019-03-08T08:36:47.277Z,96338.93
2019-03-08T08:39:24.234Z,96340.52
2019-03-08T08:41:58.001Z,96344.05
2019-03-08T08:44:38.285Z,96340.67
2019-03-08T08:47:09.047Z,96345.88
2019-03-08T08:49:42.803Z,96346.23
2019-03-08T08:52:13.524Z,96348.81
2019-03-08T08:54:41.487Z,96357.03
2019-03-08T08:57:11.998Z,96353.89
2019-03-08T08:59:39.700Z,96354.44
2019-03-08T09:02:16.498Z,96350.07
2019-03-08T09:04:46.562Z,96356.06
2019-03-08T09:07:23.463Z,96347.64
2019-03-08T09:09:57.137Z,96338.29
2019-03-08T09:12:28.142Z,96343.27
2019-03-08T09:14:58.851Z,96347.31
2019-03-08T09:17:32.690Z,96343.24
2019-03-08T09:20:06.616Z,96349.50
2019-03-08T09:22:38.243Z,96350.57
2019-03-08T09:25:13.835Z,96358.94
2019-03-08T09:27:47.604Z,96357.32
2019-03-08T09:30:32.062Z,96362.76
2019-03-08T09:33:09.169Z,96361.86
2019-03-08T09:35:36.883Z,96366.59
2019-03-08T09:38:05.184Z,96364.85
2019-03-08T09:40:49.884Z,96364.16
2019-03-08T09:43:20.955Z,96367.00
2019-03-08T09:45:48.983Z,96368.72
2019-03-08T09:48:16.706Z,96366.42
2019-03-08T09:50:44.661Z,96382.52
2019-03-08T09:53:27.585Z,96380.42
2019-03-08T09:55:55.412Z,96381.24
2019-03-08T09:58:32.601Z,96406.28
2019-03-08T10:01:06.337Z,96384.02
2019-03-08T10:03:46.736Z,96394.01
2019-03-08T10:06:32.530Z,96391.24
2019-03-08T10:09:00.245Z,96401.91
2019-03-08T10:11:28.474Z,96400.08
2019-03-08T10:14:14.473Z,96396.05
2019-03-08T10:16:58.196Z,96398.97
2019-03-08T10:19:38.191Z,96395.64
2019-03-08T10:22:08.964Z,96402.56
2019-03-08T10:24:42.796Z,96404.45
2019-03-08T10:27:16.455Z,96400.66
2019-03-08T10:29:56.590Z,96409.83
2019-03-08T10:32:36.817Z,96418.56
2019-03-08T10:34:56.959Z,96430.45
2019-03-08T10:37:40.108Z,96417.64
2019-03-08T10:40:19.560Z,96403.98
2019-03-08T10:42:56.616Z,96441.19
2019-03-08T10:48:00.991Z,96437.02
2019-03-08T10:50:31.504Z,96448.65
2019-03-08T10:53:11.629Z,96447.36
2019-03-08T10:55:45.449Z,96427.94
2019-03-08T10:58:13.435Z,96456.14
2019-03-08T11:00:44.184Z,96446.59
2019-03-08T11:03:20.474Z,96447.71
2019-03-08T11:06:06.937Z,96452.59
2019-03-08T11:08:44.144Z,96466.44
2019-03-08T11:14:11.717Z,96480.72
2019-03-08T11:16:39.417Z,96480.42
2019-03-08T11:19:12.944Z,96474.91
2019-03-08T11:22:00.613Z,96484.28
2019-03-08T11:24:43.242Z,96483.80
2019-03-08T11:27:11.236Z,96462.54
2019-03-08T11:29:43.730Z,96485.99
2019-03-08T11:32:23.350Z,96490.23
2019-03-08T11:34:58.962Z,96487.20
2019-03-08T11:37:32.813Z,96495.64
2019-03-08T11:40:00.516Z,96485.69
2019-03-08T11:42:30.132Z,96498.25
2019-03-08T11:45:07.607Z,96494.26
2019-03-08T11:47:50.455Z,96505.30
2019-03-08T11:50:33.652Z,96497.66
2019-03-08T11:53:16.833Z,96500.91
2019-03-08T11:55:47.610Z,96504.94
2019-03-08T11:58:27.794Z,96508.91
2019-03-08T12:01:01.594Z,96504.09
2019-03-08T12:03:42.965Z,96509.87
2019-03-08T12:06:10.707Z,96501.70
2019-03-08T12:08:38.428Z,96506.42
2019-03-08T12:11:11.177Z,96501.28
2019-03-08T12:13:42.113Z,96496.89
2019-03-08T12:16:28.261Z,96496.88
2019-03-08T12:18:59.203Z,96496.67
2019-03-08T12:21:32.915Z,96489.13
2019-03-08T12:24:03.639Z,96477.25
2019-03-08T12:26:34.416Z,96482.38
2019-03-08T12:29:02.472Z,96477.44
2019-03-08T12:31:46.869Z,96466.77
2019-03-08T12:34:20.898Z,96481.80
2019-03-08T12:37:07.246Z,96482.25
2019-03-08T12:39:47.336Z,96479.59
2019-03-08T12:42:21.338Z,96489.68
2019-03-08T12:45:00.886Z,96495.02
2019-03-08T12:47:34.723Z,96495.19
2019-03-08T12:50:05.218Z,96487.11
2019-03-08T12:52:36.893Z,96493.11
2019-03-08T12:55:12.648Z,96502.69
2019-03-08T12:57:46.726Z,96494.69
2019-03-08T13:00:19.931Z,96501.86
2019-03-08T13:03:04.704Z,96504.52
2019-03-08T13:05:50.722Z,96505.64
2019-03-08T13:08:35.134Z,96507.22
2019-03-08T13:11:04.319Z,96506.87
2019-03-08T13:13:30.405Z,96487.95
2019-03-08T13:15:56.226Z,96505.91
2019-03-08T13:18:22.339Z,96514.05
2019-03-08T13:20:48.174Z,96499.83
2019-03-08T13:23:17.094Z,96484.64
2019-03-08T13:25:43.186Z,96517.72
2019-03-08T13:28:10.658Z,96521.79
2019-03-08T13:30:36.473Z,96506.46
2019-03-08T13:33:05.205Z,96521.64
2019-03-08T13:35:31.045Z,96521.18
2019-03-08T13:38:00.674Z,96512.45
2019-03-08T13:40:26.601Z,96522.81
2019-03-08T13:42:55.719Z,96529.17
2019-03-08T13:45:21.556Z,96524.66
2019-03-08T13:47:50.126Z,96520.62
2019-03-08T13:50:15.966Z,96541.77
2019-03-08T13:52:42.093Z,96543.84
2019-03-08T13:55:10.423Z,96534.66
2019-03-08T13:57:36.575Z,96547.95
2019-03-08T14:00:05.348Z,96548.64
2019-03-08T14:02:31.161Z,96550.56
2019-03-08T14:04:56.985Z,96555.33
2019-03-08T14:07:22.823Z,96565.84
2019-03-08T14:09:52.041Z,96573.49
2019-03-08T14:12:17.848Z,96584.33
2019-03-08T14:14:47.075Z,96585.98
2019-03-08T14:17:12.897Z,96598.36
2019-03-08T14:19:42.231Z,96582.39
2019-03-08T14:22:08.056Z,96574.72
2019-03-08T14:24:35.495Z,96576.45
2019-03-08T14:27:01.504Z,96577.63
2019-03-08T14:29:27.346Z,96570.03
2019-03-08T14:31:55.363Z,96576.29
2019-03-08T14:34:21.188Z,96591.06
2019-03-08T14:36:47.307Z,96577.94
2019-03-08T14:39:13.124Z,96584.55
2019-03-08T14:42:03.865Z,96581.58
2019-03-08T14:44:45.757Z,96573.67
2019-03-08T14:47:13.497Z,96570.13
2019-03-08T14:49:39.333Z,96571.20
2019-03-08T14:52:05.685Z,96563.11
2019-03-08T14:54:31.496Z,96572.50
2019-03-08T14:56:57.577Z,96566.84
2019-03-08T14:59:23.813Z,96567.33
2019-03-08T15:01:49.635Z,96556.08
2019-03-08T15:04:15.670Z,96553.34
2019-03-08T15:06:41.485Z,96555.52
2019-03-08T15:09:09.728Z,96552.81
2019-03-08T15:11:35.527Z,96555.42
2019-03-08T15:14:01.641Z,96570.13
2019-03-08T15:16:27.487Z,96565.85
2019-03-08T15:18:53.542Z,96573.34
2019-03-08T15:21:19.638Z,96581.37
2019-03-08T15:23:45.742Z,96581.16
2019-03-08T15:26:11.802Z,96589.23
2019-03-08T15:28:37.620Z,96587.23
2019-03-08T15:31:03.449Z,96590.62
2019-03-08T15:33:29.258Z,96574.45
2019-03-08T15:35:55.075Z,96579.13
2019-03-08T15:38:20.916Z,96565.50
2019-03-08T15:40:48.721Z,96570.28
2019-03-08T15:43:14.841Z,96566.88
2019-03-08T15:45:44.376Z,96568.08
2019-03-08T15:48:11.035Z,96570.20
2019-03-08T15:50:36.510Z,96564.87
2019-03-08T15:53:02.312Z,96568.63
2019-03-08T15:55:28.578Z,96565.91
2019-03-08T15:57:54.916Z,96581.19
2019-03-08T16:00:21.949Z,96567.21
2019-03-08T16:02:48.384Z,96581.17
2019-03-08T16:05:18.345Z,96577.06
2019-03-08T16:07:44.243Z,96575.97
2019-03-08T16:10:12.549Z,96578.98
2019-03-08T16:12:38.334Z,96577.95
2019-03-08T16:15:06.071Z,96576.92
2019-03-08T16:17:32.162Z,96581.30
2019-03-08T16:19:58.810Z,96575.04
2019-03-08T16:22:28.508Z,96574.27
2019-03-08T16:24:53.710Z,96577.95
2019-03-08T16:27:19.536Z,96575.39
2019-03-08T16:29:45.350Z,96579.31
2019-03-08T16:32:13.347Z,96582.03
2019-03-08T16:34:39.147Z,96583.06
2019-03-08T16:37:09.605Z,96584.16
2019-03-08T16:39:53.775Z,96584.91
2019-03-08T16:42:27.848Z,96591.32
2019-03-08T16:45:04.895Z,96589.07
2019-03-08T16:47:33.097Z,96591.08
2019-03-08T16:50:01.097Z,96589.98
2019-03-08T16:52:29.036Z,96576.08
2019-03-08T16:55:02.942Z,96590.39
2019-03-08T16:57:43.368Z,96596.33
2019-03-08T17:00:11.058Z,96608.00
2019-03-08T17:02:41.858Z,96605.27
2019-03-08T17:05:24.672Z,96612.41
2019-03-08T17:07:52.388Z,96616.95
2019-03-08T17:10:20.115Z,96613.97
2019-03-08T17:13:04.805Z,96634.63
2019-03-08T17:15:48.177Z,96617.64
2019-03-08T17:18:25.218Z,96621.80
2019-03-08T17:20:58.950Z,96624.48
2019-03-08T17:23:31.563Z,96631.77
2019-03-08T17:26:05.141Z,96631.89
2019-03-08T17:28:33.146Z,96629.66
2019-03-08T17:31:00.874Z,96651.52
2019-03-08T17:33:45.579Z,96636.60
2019-03-08T17:36:13.275Z,96641.94
2019-03-08T17:38:40.990Z,96644.67
2019-03-08T17:41:11.770Z,96649.20
2019-03-08T17:43:48.191Z,96660.50
2019-03-08T17:46:18.850Z,96658.45
2019-03-08T17:51:53.572Z,96662.23
2019-03-08T17:54:24.305Z,96664.45
2019-03-08T17:56:52.325Z,96662.95
2019-03-08T17:59:23.130Z,96667.31
2019-03-08T18:01:50.827Z,96665.79
2019-03-08T18:04:27.872Z,96679.41
2019-03-08T18:06:55.592Z,96675.65
2019-03-08T18:09:23.359Z,96670.23
2019-03-08T18:12:09.364Z,96674.00
2019-03-08T18:14:53.989Z,96676.52
2019-03-08T18:17:21.989Z,96676.89
2019-03-08T18:19:58.655Z,96675.54
2019-03-08T18:22:29.897Z,96676.02
2019-03-08T18:24:57.927Z,96677.70
2019-03-08T18:27:42.610Z,96683.19
2019-03-08T18:30:18.313Z,96686.88
2019-03-08T18:32:51.998Z,96691.28
2019-03-08T18:35:25.497Z,96697.38
2019-03-08T18:37:56.086Z,96697.52
2019-03-08T18:40:27.989Z,96705.53
2019-03-08T18:43:05.623Z,96711.78
2019-03-08T18:45:43.022Z,96708.87
2019-03-08T18:48:10.744Z,96710.78
2019-03-08T18:50:41.525Z,96709.41
2019-03-08T18:53:14.916Z,96711.78
2019-03-08T18:55:58.389Z,96710.70
2019-03-08T18:58:26.359Z,96709.18
2019-03-08T19:00:54.111Z,96700.96
2019-03-08T19:03:38.545Z,96695.78
2019-03-08T19:06:09.694Z,96700.59
2019-03-08T19:08:37.660Z,96698.44
2019-03-08T19:11:05.853Z,96694.92
2019-03-08T19:13:36.395Z,96697.83
2019-03-08T19:16:09.142Z,96696.91
2019-03-08T19:18:40.035Z,96702.33
2019-03-08T19:21:24.972Z,96717.80
2019-03-08T19:24:08.168Z,96699.59
2019-03-08T19:26:54.143Z,96708.42
2019-03-08T19:29:39.173Z,96712.16
2019-03-08T19:32:16.094Z,96713.69
2019-03-08T19:34:43.792Z,96711.31
2019-03-08T19:37:28.540Z,96713.59
2019-03-08T19:39:56.239Z,96715.11
2019-03-08T19:42:24.343Z,96732.64
2019-03-08T19:44:52.085Z,96720.31
2019-03-08T19:47:25.442Z,96722.66
2019-03-08T19:49:59.319Z,96723.36
2019-03-08T19:52:27.035Z,96722.10
2019-03-08T19:54:54.974Z,96720.97
2019-03-08T19:57:39.664Z,96718.38
2019-03-08T20:00:22.824Z,96726.14
2019-03-08T20:03:02.494Z,96724.47
2019-03-08T20:08:28.459Z,96734.73
2019-03-08T20:10:59.218Z,96735.12
2019-03-08T20:13:42.086Z,96740.67
2019-03-08T20:16:24.855Z,96741.12
2019-03-08T20:18:52.845Z,96742.41
2019-03-08T20:21:37.505Z,96750.12
2019-03-08T20:24:08.004Z,96748.60
2019-03-08T20:26:41.833Z,96740.48
2019-03-08T20:29:15.507Z,96743.29
2019-03-08T20:31:46.345Z,96749.22
2019-03-08T20:34:17.095Z,96745.78
2019-03-08T20:36:44.817Z,96747.52
2019-03-08T20:39:27.638Z,96747.41
2019-03-08T20:41:58.136Z,96743.25
2019-03-08T20:44:31.701Z,96738.56
2019-03-08T20:46:59.467Z,96745.41
2019-03-08T20:49:25.266Z,96746.55
2019-03-08T20:51:51.056Z,96746.70
2019-03-08T20:54:17.225Z,96741.09
2019-03-08T20:56:43.095Z,96739.65
2019-03-08T20:59:08.933Z,96744.42
2019-03-08T21:01:35.016Z,96739.75
2019-03-08T21:04:00.849Z,96737.42
2019-03-08T21:06:26.770Z,96734.77
2019-03-08T21:08:53.649Z,96742.05
2019-03-08T21:11:19.456Z,96760.87
2019-03-08T21:13:45.537Z,96739.69
2019-03-08T21:16:11.344Z,96739.34
2019-03-08T21:18:37.403Z,96730.51
2019-03-08T21:21:06.282Z,96734.11
2019-03-08T21:23:32.090Z,96746.02
2019-03-08T21:26:01.034Z,96735.97
2019-03-08T21:28:27.165Z,96753.49
2019-03-08T21:30:56.230Z,96733.00
2019-03-08T21:33:22.046Z,96759.02
2019-03-08T21:35:50.641Z,96743.36
2019-03-08T21:38:16.451Z,96752.58
2019-03-08T21:40:45.039Z,96736.34
2019-03-08T21:43:10.882Z,96746.61
2019-03-08T21:45:40.041Z,96724.45
2019-03-08T21:48:06.074Z,96716.87
2019-03-08T21:50:31.995Z,96715.95
2019-03-08T21:52:57.825Z,96719.02
2019-03-08T21:55:23.873Z,96712.29
2019-03-08T21:57:52.469Z,96708.73
2019-03-08T22:00:23.615Z,96727.38
2019-03-08T22:02:49.396Z,96703.39
2019-03-08T22:05:17.231Z,96711.25
2019-03-08T22:07:43.051Z,96703.52
2019-03-08T22:10:24.565Z,96705.28
2019-03-08T22:12:50.938Z,96701.02
2019-03-08T22:15:16.772Z,96697.73
2019-03-08T22:17:42.605Z,96700.95
2019-03-08T22:20:08.655Z,96691.73
2019-03-08T22:22:35.644Z,96700.73
2019-03-08T22:25:01.944Z,96697.64
2019-03-08T22:27:27.753Z,96692.59
2019-03-08T22:29:53.850Z,96687.48
2019-03-08T22:32:19.686Z,96690.54
2019-03-08T22:34:45.517Z,96687.80
2019-03-08T22:37:11.600Z,96686.75
2019-03-08T22:39:37.420Z,96678.98
2019-03-08T22:42:03.333Z,96680.80
2019-03-08T22:44:32.427Z,96674.50
2019-03-08T22:46:58.284Z,96384.85
2019-03-08T22:49:24.096Z,96671.66
2019-03-08T22:51:50.207Z,96670.33
2019-03-08T22:54:15.996Z,96664.94
2019-03-08T22:56:41.802Z,96672.50
2019-03-08T22:59:10.881Z,96667.20
2019-03-08T23:01:47.997Z,96684.63
2019-03-08T23:04:14.053Z,96669.52
2019-03-08T23:06:39.835Z,96659.67
2019-03-08T23:09:08.460Z,96664.08
2019-03-08T23:11:34.598Z,96647.80
2019-03-08T23:14:00.454Z,96653.64
2019-03-08T23:16:26.290Z,96642.44
2019-03-08T23:18:52.383Z,96643.03
2019-03-08T23:21:18.480Z,96645.56
2019-03-08T23:23:44.575Z,96643.45
2019-03-08T23:26:10.380Z,96649.27
2019-03-08T23:28:41.408Z,96639.37
2019-03-08T23:31:18.799Z,96640.06
2019-03-08T23:33:44.873Z,96632.56
2019-03-08T23:36:10.703Z,96638.56
2019-03-08T23:38:36.791Z,96630.67
2019-03-08T23:41:02.616Z,96633.58
2019-03-08T23:43:28.437Z,96631.30
2019-03-08T23:45:54.262Z,96627.30
2019-03-08T23:48:20.399Z,96627.30
2019-03-08T23:50:46.215Z,96631.63
2019-03-08T23:53:12.268Z,96627.14
2019-03-08T23:55:38.364Z,96625.69
2019-03-08T23:58:04.416Z,96616.13
